Saint Anthony Village, Minnesota
Current Conditions -  °F | °C
As of 9:53 AM on Monday 24 Nov 2014 (Local Time) from KMIC Reporting Station
Overcast Overcast  
Wind Chill:   Ceiling: 1600
Heat Index: 23°   Visibility: 10mi
Dew Point: 17°   Wind: 23mph
Humidity: 78%   Direction: 310°NW
Pressure: 29.43"   Gusts: 29mph
Location:  45.0516°N, 93.2549°W
Report Text: KMIC 241553Z 31020G25KT 10SM OVC016 M05/M08 A2943 RMK AO2 SLP974 T10501083
Loading
Personal Weather Stations






























Interactive Weather Map New forecast layout! Learn more

10-Day Weather Forecast

Advertisements
Track Severe Weather on mobile